createdAt,value
2023-12-07T00:00:51.916Z,13.10
2023-12-07T00:05:53.381Z,13.07
2023-12-07T00:10:54.824Z,13.40
2023-12-07T00:15:56.308Z,12.55
2023-12-07T00:20:57.737Z,11.32
2023-12-07T00:25:59.199Z,13.27
2023-12-07T00:31:00.673Z,10.90
2023-12-07T00:36:02.068Z,16.50
2023-12-07T00:41:03.629Z,13.80
2023-12-07T00:46:08.451Z,12.52
2023-12-07T00:51:10.853Z,9.38
2023-12-07T00:56:12.318Z,11.65
2023-12-07T01:01:13.880Z,11.45
2023-12-07T01:06:17.786Z,13.45
2023-12-07T01:11:19.281Z,13.50
2023-12-07T01:16:20.706Z,13.07
2023-12-07T01:21:22.203Z,14.30
2023-12-07T01:26:23.632Z,13.02
2023-12-07T01:31:25.218Z,15.25
2023-12-07T01:36:26.739Z,14.32
2023-12-07T01:41:28.138Z,13.18
2023-12-07T01:46:29.673Z,13.77
2023-12-07T01:51:32.306Z,14.88
2023-12-07T01:56:33.799Z,16.83
2023-12-07T02:01:35.206Z,11.40
2023-12-07T02:06:36.805Z,18.67
2023-12-07T02:11:38.202Z,14.65
2023-12-07T02:17:29.979Z,12.63
2023-12-07T02:22:50.700Z,16.23
2023-12-07T02:27:52.118Z,14.70
2023-12-07T02:32:53.757Z,16.33
2023-12-07T02:37:55.753Z,13.65
2023-12-07T02:42:58.448Z,13.05
2023-12-07T02:48:00.066Z,15.60
2023-12-07T02:53:01.544Z,13.20
2023-12-07T02:58:03.117Z,14.63
2023-12-07T03:03:05.005Z,12.88
2023-12-07T03:08:06.482Z,16.90
2023-12-07T03:13:07.951Z,16.25
2023-12-07T03:18:09.562Z,22.13
2023-12-07T03:23:11.004Z,15.43
2023-12-07T03:28:12.412Z,17.52
2023-12-07T03:33:13.957Z,16.42
2023-12-07T03:38:16.094Z,13.68
2023-12-07T03:43:20.343Z,16.23
2023-12-07T03:48:21.909Z,14.52
2023-12-07T03:53:23.318Z,17.00
2023-12-07T03:58:24.803Z,21.33
2023-12-07T04:03:26.366Z,20.77
2023-12-07T04:08:27.784Z,19.77
2023-12-07T04:13:29.200Z,22.38
2023-12-07T04:18:30.636Z,18.38
2023-12-07T04:23:32.395Z,22.52
2023-12-07T04:28:33.792Z,17.05
2023-12-07T04:33:35.350Z,19.05
2023-12-07T04:38:36.874Z,15.75
2023-12-07T04:43:38.283Z,16.33
2023-12-07T04:48:39.680Z,15.95
2023-12-07T04:53:41.229Z,16.30
2023-12-07T04:58:43.150Z,24.83
2023-12-07T05:03:44.591Z,25.23
2023-12-07T05:08:45.979Z,18.63
2023-12-07T05:13:48.997Z,19.65
2023-12-07T05:18:50.453Z,18.25
2023-12-07T05:23:51.912Z,18.85
2023-12-07T05:28:53.322Z,16.95
2023-12-07T05:33:54.744Z,21.52
2023-12-07T05:38:56.510Z,18.70
2023-12-07T05:43:57.882Z,15.98
2023-12-07T05:48:59.726Z,25.95
2023-12-07T05:54:01.134Z,18.70
2023-12-07T05:59:02.513Z,17.00
2023-12-07T06:04:03.966Z,20.40
2023-12-07T06:09:09.120Z,21.33
2023-12-07T06:14:10.649Z,21.92
2023-12-07T06:19:12.112Z,21.98
2023-12-07T06:24:15.302Z,19.83
2023-12-07T06:29:16.731Z,24.75
2023-12-07T06:34:18.276Z,22.17
2023-12-07T06:39:19.818Z,19.17
2023-12-07T06:44:21.190Z,19.05
2023-12-07T06:49:25.428Z,25.75
2023-12-07T06:54:28.272Z,19.25
2023-12-07T06:59:29.673Z,24.75
2023-12-07T07:04:31.117Z,25.25
2023-12-07T07:09:32.586Z,24.35
2023-12-07T07:14:34.064Z,25.67
2023-12-07T07:19:35.531Z,30.10
2023-12-07T07:24:36.927Z,18.98
2023-12-07T07:29:38.388Z,22.67
2023-12-07T07:34:40.670Z,22.20
2023-12-07T07:39:42.177Z,26.55
2023-12-07T07:44:43.720Z,29.90
2023-12-07T07:49:45.153Z,33.22
2023-12-07T07:54:46.549Z,25.77
2023-12-07T07:59:47.923Z,25.80
2023-12-07T08:04:49.441Z,32.35
2023-12-07T08:09:50.829Z,23.67
2023-12-07T08:14:52.330Z,27.48
2023-12-07T08:19:54.384Z,34.30
2023-12-07T08:25:01.347Z,20.92
2023-12-07T08:30:10.539Z,24.73
2023-12-07T08:35:12.124Z,24.85
2023-12-07T08:40:16.218Z,23.25
2023-12-07T08:45:18.476Z,30.45
2023-12-07T08:50:19.860Z,26.75
2023-12-07T08:55:21.426Z,32.90
2023-12-07T09:00:25.244Z,35.38
2023-12-07T09:05:27.683Z,32.20
2023-12-07T09:10:29.352Z,45.33
2023-12-07T09:15:31.234Z,36.17
2023-12-07T09:20:32.615Z,32.95
2023-12-07T09:25:34.059Z,42.10
2023-12-07T09:30:35.752Z,40.50
2023-12-07T09:35:37.168Z,36.38
2023-12-07T09:40:38.574Z,39.42
2023-12-07T09:45:40.246Z,32.80
2023-12-07T09:50:41.652Z,38.55
2023-12-07T09:55:43.026Z,36.53
2023-12-07T10:00:44.788Z,34.20
2023-12-07T10:05:57.420Z,35.08
2023-12-07T10:11:14.119Z,32.75
2023-12-07T10:16:17.396Z,37.53
2023-12-07T10:21:32.750Z,75.68
2023-12-07T10:26:35.430Z,39.53
2023-12-07T10:31:39.083Z,34.60
2023-12-07T10:36:41.743Z,35.90
2023-12-07T10:41:44.696Z,36.15
2023-12-07T10:46:46.401Z,32.88
2023-12-07T10:52:02.121Z,32.50
2023-12-07T10:57:06.274Z,35.17
2023-12-07T11:02:11.848Z,32.70
2023-12-07T11:07:18.168Z,32.10
2023-12-07T11:12:30.251Z,34.10
2023-12-07T11:17:49.011Z,39.03
2023-12-07T11:22:51.234Z,38.38
2023-12-07T11:28:03.155Z,43.58
2023-12-07T11:33:08.329Z,32.80
2023-12-07T11:38:12.607Z,31.98
2023-12-07T11:43:41.794Z,37.25
2023-12-07T11:48:50.506Z,36.08
2023-12-07T11:53:52.141Z,38.85
2023-12-07T11:58:54.073Z,37.17
2023-12-07T12:03:55.808Z,32.50
2023-12-07T12:08:57.327Z,34.80
2023-12-07T12:13:59.018Z,33.67
2023-12-07T12:19:00.982Z,33.75
2023-12-07T12:24:02.374Z,36.40
2023-12-07T12:29:04.117Z,35.42
2023-12-07T12:34:14.575Z,45.47
2023-12-07T12:39:26.599Z,50.15
2023-12-07T12:44:36.806Z,49.13
2023-12-07T12:49:44.905Z,39.08
2023-12-07T12:54:47.843Z,46.70
2023-12-07T12:59:51.949Z,55.15
2023-12-07T13:04:53.550Z,51.78
2023-12-07T13:09:55.612Z,40.83
2023-12-07T13:14:57.180Z,38.53
2023-12-07T13:20:01.148Z,41.63
2023-12-07T13:25:03.599Z,36.33
2023-12-07T13:30:08.281Z,44.15
2023-12-07T13:35:09.903Z,51.88
2023-12-07T13:40:13.069Z,44.83
2023-12-07T13:45:14.967Z,41.60
2023-12-07T13:50:16.378Z,45.92
2023-12-07T13:55:17.786Z,34.63
2023-12-07T14:00:21.018Z,39.88
2023-12-07T14:05:23.400Z,41.03
2023-12-07T14:10:24.998Z,37.42
2023-12-07T14:15:35.296Z,39.72
2023-12-07T14:20:56.216Z,41.28
2023-12-07T14:26:07.488Z,44.53
2023-12-07T14:31:15.342Z,40.30
2023-12-07T14:41:18.734Z,38.10
2023-12-07T14:46:20.103Z,44.53
2023-12-07T14:51:22.258Z,38.00
2023-12-07T14:56:23.753Z,41.17
2023-12-07T15:01:25.536Z,39.03
2023-12-07T15:06:28.507Z,39.45
2023-12-07T15:11:30.071Z,33.00
2023-12-07T15:16:31.532Z,33.35
2023-12-07T15:21:33.190Z,43.28
2023-12-07T15:26:34.870Z,34.63
2023-12-07T15:31:36.351Z,30.15
2023-12-07T15:36:37.763Z,25.67
2023-12-07T15:41:39.395Z,31.13
2023-12-07T15:46:40.778Z,26.17
2023-12-07T15:51:42.152Z,25.27
2023-12-07T15:56:45.209Z,19.73
2023-12-07T16:01:46.590Z,18.63
2023-12-07T16:06:48.218Z,14.05
2023-12-07T16:11:49.606Z,16.95
2023-12-07T16:16:51.740Z,12.98
2023-12-07T16:21:53.157Z,13.30
2023-12-07T16:26:54.850Z,11.98
2023-12-07T16:31:56.467Z,10.98
2023-12-07T16:36:57.874Z,11.45
2023-12-07T16:42:02.371Z,10.10
2023-12-07T16:47:05.081Z,9.98
2023-12-07T16:52:06.545Z,13.65
2023-12-07T16:57:08.124Z,9.50
2023-12-07T17:02:09.579Z,9.60
2023-12-07T17:07:11.464Z,11.68
2023-12-07T17:12:12.875Z,14.13
2023-12-07T17:17:14.427Z,11.68
2023-12-07T17:22:15.826Z,9.65
2023-12-07T17:27:17.959Z,13.82
2023-12-07T17:32:19.354Z,11.75
2023-12-07T17:37:20.780Z,10.13
2023-12-07T17:42:22.304Z,11.65
2023-12-07T17:47:24.787Z,12.23
2023-12-07T17:52:26.314Z,12.98
2023-12-07T17:57:27.897Z,11.93
2023-12-07T18:02:29.616Z,12.20
2023-12-07T18:07:31.050Z,12.00
2023-12-07T18:12:32.456Z,15.27
2023-12-07T18:17:33.957Z,15.63
2023-12-07T18:22:35.383Z,20.05
2023-12-07T18:27:36.840Z,84.53
2023-12-07T18:32:38.358Z,23.58
2023-12-07T18:37:41.318Z,14.77
2023-12-07T18:42:43.008Z,17.85
2023-12-07T18:47:44.670Z,14.48
2023-12-07T18:52:46.284Z,11.77
2023-12-07T18:57:47.771Z,12.93
2023-12-07T19:02:49.385Z,11.98
2023-12-07T19:07:50.851Z,11.85
2023-12-07T19:12:52.491Z,14.02
2023-12-07T19:17:54.101Z,13.80
2023-12-07T19:22:56.018Z,16.40
2023-12-07T19:27:57.434Z,15.57
2023-12-07T19:33:03.384Z,13.43
2023-12-07T19:38:06.044Z,21.27
2023-12-07T19:43:07.549Z,16.23
2023-12-07T19:48:09.315Z,19.00
2023-12-07T19:53:11.175Z,17.77
2023-12-07T19:58:13.648Z,20.58
2023-12-07T20:03:15.079Z,27.17
2023-12-07T20:08:16.586Z,23.42
2023-12-07T20:13:18.029Z,19.65
2023-12-07T20:18:20.263Z,20.40
2023-12-07T20:23:21.856Z,22.55
2023-12-07T20:28:23.277Z,21.23
2023-12-07T20:33:24.855Z,25.40
2023-12-07T20:38:26.427Z,20.92
2023-12-07T20:43:28.047Z,23.38
2023-12-07T20:48:29.558Z,25.52
2023-12-07T20:53:31.136Z,24.80
2023-12-07T20:58:33.883Z,28.42
2023-12-07T21:03:36.216Z,29.98
2023-12-07T21:08:39.456Z,24.45
2023-12-07T21:13:40.871Z,27.45
2023-12-07T21:18:42.530Z,25.27
2023-12-07T21:23:44.045Z,23.85
2023-12-07T21:28:45.589Z,25.20
2023-12-07T21:33:47.106Z,22.48
2023-12-07T21:38:49.120Z,31.48
2023-12-07T21:43:50.510Z,26.00
2023-12-07T21:48:52.009Z,25.85
2023-12-07T21:53:53.520Z,22.95
2023-12-07T21:58:54.961Z,26.10
2023-12-07T22:03:56.375Z,23.25
2023-12-07T22:08:57.814Z,25.42
2023-12-07T22:13:59.259Z,26.27
2023-12-07T22:19:00.707Z,22.15
2023-12-07T22:24:02.278Z,30.63
2023-12-07T22:29:03.667Z,22.70
2023-12-07T22:34:05.312Z,25.05
2023-12-07T22:39:06.953Z,22.70
2023-12-07T22:44:08.349Z,23.27
2023-12-07T22:49:09.817Z,20.90
2023-12-07T22:54:11.313Z,24.75
2023-12-07T22:59:12.751Z,26.02
2023-12-07T23:04:14.154Z,27.30
2023-12-07T23:09:15.516Z,24.48
2023-12-07T23:14:16.946Z,26.17
2023-12-07T23:19:19.030Z,24.67
2023-12-07T23:24:20.676Z,24.70
2023-12-07T23:29:22.075Z,32.33
2023-12-07T23:34:24.630Z,26.85
2023-12-07T23:39:26.200Z,26.30
2023-12-07T23:44:27.671Z,24.48
2023-12-07T23:49:29.574Z,23.48
2023-12-07T23:54:31.208Z,24.67
2023-12-07T23:59:32.738Z,26.15
